createdAt,value
2018-05-16T00:00:38.323Z,11.89
2018-05-16T00:03:05.846Z,11.90
2018-05-16T00:05:33.390Z,11.89
2018-05-16T00:08:00.894Z,11.89
2018-05-16T00:10:28.397Z,11.89
2018-05-16T00:12:55.929Z,11.88
2018-05-16T00:15:23.446Z,11.90
2018-05-16T00:17:50.988Z,11.90
2018-05-16T00:20:18.630Z,11.92
2018-05-16T00:22:46.142Z,11.92
2018-05-16T00:25:13.686Z,11.91
2018-05-16T00:27:41.206Z,11.88
2018-05-16T00:30:08.807Z,11.86
2018-05-16T00:32:36.318Z,11.84
2018-05-16T00:35:03.841Z,11.79
2018-05-16T00:37:31.437Z,11.77
2018-05-16T00:39:58.962Z,11.75
2018-05-16T00:42:26.490Z,11.74
2018-05-16T00:44:54.055Z,11.70
2018-05-16T00:47:21.574Z,11.66
2018-05-16T00:49:49.068Z,11.63
2018-05-16T00:52:17.495Z,11.61
2018-05-16T00:54:44.999Z,11.61
2018-05-16T00:57:12.562Z,11.63
2018-05-16T00:59:40.122Z,11.66
2018-05-16T01:02:07.666Z,11.71
2018-05-16T01:04:35.191Z,11.74
2018-05-16T01:07:02.729Z,11.76
2018-05-16T01:09:30.257Z,11.79
2018-05-16T01:11:57.868Z,11.80
2018-05-16T01:14:25.441Z,11.81
2018-05-16T01:16:53.249Z,11.83
2018-05-16T01:19:21.028Z,11.84
2018-05-16T01:21:48.862Z,11.85
2018-05-16T01:24:16.414Z,11.86
2018-05-16T01:26:43.957Z,11.87
2018-05-16T01:29:11.533Z,11.88
2018-05-16T01:31:39.365Z,11.88
2018-05-16T01:34:06.949Z,11.88
2018-05-16T01:36:34.489Z,11.88
2018-05-16T01:39:02.023Z,11.88
2018-05-16T01:41:29.612Z,11.87
2018-05-16T01:43:57.174Z,11.88
2018-05-16T01:46:24.678Z,11.87
2018-05-16T01:49:03.977Z,11.86
2018-05-16T01:51:31.490Z,11.88
2018-05-16T01:53:58.990Z,11.86
2018-05-16T01:56:26.501Z,11.88
2018-05-16T01:58:53.994Z,11.88
2018-05-16T02:01:21.529Z,11.89
2018-05-16T02:03:49.053Z,11.90
2018-05-16T02:06:16.566Z,11.89
2018-05-16T02:08:44.066Z,11.88
2018-05-16T02:11:11.619Z,11.89
2018-05-16T02:13:39.166Z,11.89
2018-05-16T02:16:06.689Z,11.91
2018-05-16T02:18:34.269Z,11.91
2018-05-16T02:21:01.803Z,11.90
2018-05-16T02:23:29.318Z,11.90
2018-05-16T02:25:56.857Z,11.91
2018-05-16T02:28:24.462Z,11.92
2018-05-16T02:30:52.002Z,11.90
2018-05-16T02:33:19.558Z,11.91
2018-05-16T02:35:47.117Z,11.90
2018-05-16T02:38:14.618Z,11.93
2018-05-16T02:40:42.141Z,11.94
2018-05-16T02:43:09.662Z,11.86
2018-05-16T02:45:37.173Z,11.99
2018-05-16T02:48:04.718Z,12.01
2018-05-16T02:50:32.219Z,12.02
2018-05-16T02:52:59.781Z,12.03
2018-05-16T02:55:27.309Z,12.03
2018-05-16T02:57:54.811Z,12.06
2018-05-16T03:00:22.391Z,12.03
2018-05-16T03:02:49.914Z,12.03
2018-05-16T03:05:17.457Z,12.04
2018-05-16T03:07:44.966Z,12.03
2018-05-16T03:10:12.524Z,12.04
2018-05-16T03:12:40.043Z,12.05
2018-05-16T03:15:07.543Z,12.05
2018-05-16T03:17:35.147Z,12.07
2018-05-16T03:20:02.672Z,12.08
2018-05-16T03:22:30.175Z,12.08
2018-05-16T03:24:57.754Z,12.09
2018-05-16T03:27:25.252Z,12.10
2018-05-16T03:29:52.773Z,12.09
2018-05-16T03:32:21.312Z,12.10
2018-05-16T03:34:48.825Z,12.11
2018-05-16T03:37:16.313Z,12.14
2018-05-16T03:39:43.864Z,12.15
2018-05-16T03:42:11.382Z,12.17
2018-05-16T03:44:38.907Z,12.17
2018-05-16T03:47:06.446Z,12.16
2018-05-16T03:49:33.953Z,12.16
2018-05-16T03:52:01.549Z,12.17
2018-05-16T03:54:29.021Z,12.17
2018-05-16T03:56:56.563Z,12.18
2018-05-16T03:59:35.965Z,12.17
2018-05-16T04:02:15.325Z,12.19
2018-05-16T04:04:42.914Z,12.19
2018-05-16T04:07:10.421Z,12.21
2018-05-16T04:09:37.960Z,12.20
2018-05-16T04:12:05.514Z,12.21
2018-05-16T04:14:33.034Z,12.22
2018-05-16T04:17:00.631Z,12.23
2018-05-16T04:19:28.166Z,12.27
2018-05-16T04:21:55.673Z,12.31
2018-05-16T04:24:23.211Z,12.31
2018-05-16T04:26:50.745Z,12.29
2018-05-16T04:29:18.298Z,12.24
2018-05-16T04:31:45.862Z,12.24
2018-05-16T04:34:13.416Z,12.24
2018-05-16T04:36:40.955Z,12.23
2018-05-16T04:39:08.498Z,12.23
2018-05-16T04:41:36.038Z,12.21
2018-05-16T04:44:03.563Z,12.22
2018-05-16T04:46:31.077Z,12.21
2018-05-16T04:48:58.632Z,12.22
2018-05-16T04:51:26.156Z,12.27
2018-05-16T04:53:53.705Z,12.31
2018-05-16T04:56:21.278Z,12.36
2018-05-16T04:58:48.789Z,12.39
2018-05-16T05:01:16.338Z,12.43
2018-05-16T05:03:43.911Z,12.47
2018-05-16T05:06:11.447Z,12.52
2018-05-16T05:08:38.966Z,12.51
2018-05-16T05:11:06.514Z,12.55
2018-05-16T05:13:34.028Z,12.60
2018-05-16T05:16:01.548Z,12.68
2018-05-16T05:18:29.181Z,12.73
2018-05-16T05:20:56.625Z,12.80
2018-05-16T05:23:24.143Z,12.76
2018-05-16T05:25:51.702Z,12.75
2018-05-16T05:28:19.214Z,12.70
2018-05-16T05:30:46.760Z,12.71
2018-05-16T05:33:14.356Z,12.58
2018-05-16T05:35:41.989Z,12.83
2018-05-16T05:38:09.506Z,12.90
2018-05-16T05:40:37.059Z,12.88
2018-05-16T05:43:04.604Z,12.87
2018-05-16T05:45:32.126Z,13.03
2018-05-16T05:47:59.697Z,13.15
2018-05-16T05:50:27.213Z,13.28
2018-05-16T05:52:54.770Z,13.32
2018-05-16T05:55:22.339Z,13.45
2018-05-16T05:57:49.832Z,13.57
2018-05-16T06:00:17.358Z,13.54
2018-05-16T06:02:44.985Z,13.59
2018-05-16T06:05:12.561Z,13.22
2018-05-16T06:07:40.146Z,13.78
2018-05-16T06:10:07.757Z,13.87
2018-05-16T06:12:35.279Z,13.92
2018-05-16T06:15:02.842Z,13.89
2018-05-16T06:17:30.395Z,13.80
2018-05-16T06:19:57.901Z,13.85
2018-05-16T06:22:25.441Z,13.97
2018-05-16T06:24:53.016Z,14.15
2018-05-16T06:27:20.624Z,14.17
2018-05-16T06:29:48.092Z,14.43
2018-05-16T06:32:15.660Z,14.28
2018-05-16T06:34:43.203Z,14.22
2018-05-16T06:37:10.782Z,14.18
2018-05-16T06:39:38.354Z,14.24
2018-05-16T06:42:05.880Z,14.34
2018-05-16T06:44:33.451Z,14.36
2018-05-16T06:47:01.010Z,14.28
2018-05-16T06:49:28.519Z,14.19
2018-05-16T06:51:56.009Z,13.99
2018-05-16T06:54:23.554Z,13.97
2018-05-16T06:56:51.073Z,14.01
2018-05-16T06:59:18.564Z,13.98
2018-05-16T07:01:46.176Z,13.99
2018-05-16T07:04:13.633Z,14.16
2018-05-16T07:06:41.124Z,14.27
2018-05-16T07:09:08.644Z,14.27
2018-05-16T07:11:36.153Z,14.25
2018-05-16T07:14:03.654Z,14.21
2018-05-16T07:16:31.193Z,14.23
2018-05-16T07:18:58.709Z,14.21
2018-05-16T07:21:26.208Z,14.14
2018-05-16T07:23:53.717Z,14.22
2018-05-16T07:26:21.201Z,14.26
2018-05-16T07:28:48.711Z,14.23
2018-05-16T07:31:16.273Z,14.29
2018-05-16T07:33:43.818Z,14.40
2018-05-16T07:36:12.116Z,14.65
2018-05-16T07:38:39.656Z,14.67
2018-05-16T07:41:07.312Z,14.57
2018-05-16T07:43:34.709Z,14.57
2018-05-16T07:46:02.222Z,14.36
2018-05-16T07:48:29.701Z,14.39
2018-05-16T07:50:57.189Z,14.45
2018-05-16T07:53:24.698Z,14.52
2018-05-16T07:55:52.211Z,14.49
2018-05-16T07:58:19.705Z,14.42
2018-05-16T08:00:47.213Z,14.47
2018-05-16T08:03:14.705Z,14.50
2018-05-16T08:05:42.190Z,14.55
2018-05-16T08:08:09.697Z,14.59
2018-05-16T08:10:37.186Z,14.64
2018-05-16T08:13:04.673Z,14.71
2018-05-16T08:15:32.181Z,14.74
2018-05-16T08:17:59.675Z,14.85
2018-05-16T08:20:27.170Z,14.85
2018-05-16T08:22:54.687Z,14.97
2018-05-16T08:25:22.181Z,15.23
2018-05-16T08:27:49.673Z,15.33
2018-05-16T08:30:17.191Z,15.42
2018-05-16T08:32:44.689Z,15.38
2018-05-16T08:35:12.173Z,15.18
2018-05-16T08:37:39.690Z,15.14
2018-05-16T08:40:07.182Z,15.20
2018-05-16T08:42:34.678Z,15.17
2018-05-16T08:45:02.232Z,15.19
2018-05-16T08:47:29.705Z,15.39
2018-05-16T08:49:57.848Z,15.52
2018-05-16T08:52:25.369Z,15.58
2018-05-16T08:54:52.863Z,15.32
2018-05-16T08:57:20.414Z,15.36
2018-05-16T08:59:47.931Z,15.31
2018-05-16T09:02:15.459Z,15.39
2018-05-16T09:04:43.020Z,15.37
2018-05-16T09:07:10.541Z,15.25
2018-05-16T09:09:38.034Z,15.32
2018-05-16T09:12:05.527Z,15.13
2018-05-16T09:14:33.042Z,15.13
2018-05-16T09:17:00.530Z,15.25
2018-05-16T09:19:28.019Z,15.32
2018-05-16T09:21:55.546Z,15.22
2018-05-16T09:24:23.038Z,15.20
2018-05-16T09:26:50.534Z,15.14
2018-05-16T09:29:18.051Z,15.06
2018-05-16T09:31:45.552Z,15.15
2018-05-16T09:34:13.037Z,15.21
2018-05-16T09:36:40.553Z,15.63
2018-05-16T09:39:08.046Z,16.03
2018-05-16T09:41:35.532Z,16.30
2018-05-16T09:44:03.049Z,16.45
2018-05-16T09:46:30.534Z,16.73
2018-05-16T09:48:58.039Z,16.93
2018-05-16T09:51:25.566Z,17.01
2018-05-16T09:53:53.075Z,16.90
2018-05-16T09:56:22.305Z,17.00
2018-05-16T09:58:49.814Z,16.92
2018-05-16T10:01:17.314Z,16.76
2018-05-16T10:03:44.815Z,16.39
2018-05-16T10:06:12.338Z,16.36
2018-05-16T10:08:39.829Z,16.50
2018-05-16T10:11:07.323Z,16.49
2018-05-16T10:13:34.850Z,16.58
2018-05-16T10:16:02.374Z,16.57
2018-05-16T10:18:29.859Z,16.65
2018-05-16T10:20:57.379Z,16.55
2018-05-16T10:23:24.865Z,16.44
2018-05-16T10:25:52.349Z,16.25
2018-05-16T10:28:19.866Z,16.51
2018-05-16T10:30:47.358Z,16.38
2018-05-16T10:33:14.859Z,16.34
2018-05-16T10:35:42.382Z,16.12
2018-05-16T10:38:09.866Z,16.13
2018-05-16T10:40:37.363Z,16.29
2018-05-16T10:43:04.878Z,16.48
2018-05-16T10:45:32.374Z,16.75
2018-05-16T10:47:59.867Z,16.94
2018-05-16T10:50:27.439Z,17.14
2018-05-16T10:52:54.901Z,17.20
2018-05-16T10:55:22.403Z,17.16
2018-05-16T10:57:49.926Z,17.16
2018-05-16T11:00:17.408Z,17.04
2018-05-16T11:02:44.912Z,16.79
2018-05-16T11:05:12.426Z,16.72
2018-05-16T11:07:39.935Z,16.91
2018-05-16T11:10:07.421Z,16.64
2018-05-16T11:12:35.972Z,17.16
2018-05-16T11:15:03.457Z,16.83
2018-05-16T11:17:30.957Z,16.57
2018-05-16T11:19:58.483Z,16.99
2018-05-16T11:22:26.006Z,17.38
2018-05-16T11:24:53.504Z,17.91
2018-05-16T11:27:21.013Z,18.39
2018-05-16T11:29:48.523Z,18.64
2018-05-16T11:32:16.077Z,18.76
2018-05-16T11:34:43.590Z,18.62
2018-05-16T11:37:11.088Z,18.63
2018-05-16T11:39:38.595Z,18.57
2018-05-16T11:42:06.110Z,18.54
2018-05-16T11:44:33.602Z,18.66
2018-05-16T11:47:01.089Z,19.07
2018-05-16T11:49:28.693Z,19.37
2018-05-16T11:51:56.161Z,19.50
2018-05-16T11:54:23.654Z,19.58
2018-05-16T11:56:51.168Z,19.57
2018-05-16T11:59:18.680Z,20.25
2018-05-16T12:01:46.171Z,20.92
2018-05-16T12:04:13.682Z,21.68
2018-05-16T12:06:41.165Z,21.85
2018-05-16T12:09:08.753Z,22.17
2018-05-16T12:11:37.145Z,21.38
2018-05-16T12:14:04.633Z,21.09
2018-05-16T12:16:32.179Z,20.75
2018-05-16T12:18:59.702Z,20.19
2018-05-16T12:21:27.188Z,20.39
2018-05-16T12:23:54.674Z,21.06
2018-05-16T12:26:22.230Z,21.46
2018-05-16T12:28:49.773Z,21.25
2018-05-16T12:31:17.273Z,20.62
2018-05-16T12:33:44.814Z,21.00
2018-05-16T12:36:12.297Z,20.86
2018-05-16T12:38:39.797Z,20.88
2018-05-16T12:41:07.320Z,20.16
2018-05-16T12:43:34.805Z,20.31
2018-05-16T12:46:02.293Z,20.59
2018-05-16T12:48:29.803Z,20.63
2018-05-16T12:50:57.301Z,20.51
2018-05-16T12:53:24.822Z,20.58
2018-05-16T12:55:52.346Z,20.56
2018-05-16T12:58:19.843Z,20.10
2018-05-16T13:00:47.330Z,19.97
2018-05-16T13:03:14.846Z,19.58
2018-05-16T13:05:42.333Z,19.18
2018-05-16T13:08:09.821Z,18.75
2018-05-16T13:10:37.337Z,18.59
2018-05-16T13:13:04.933Z,17.40
2018-05-16T13:15:32.345Z,15.99
2018-05-16T13:17:59.872Z,13.99
2018-05-16T13:20:27.376Z,12.68
2018-05-16T13:22:54.874Z,11.96
2018-05-16T13:25:22.391Z,11.82
2018-05-16T13:27:49.877Z,11.39
2018-05-16T13:30:17.371Z,11.28
2018-05-16T13:32:44.876Z,11.16
2018-05-16T13:35:12.367Z,11.23
2018-05-16T13:37:39.859Z,11.25
2018-05-16T13:40:07.381Z,11.10
2018-05-16T13:42:34.926Z,11.14
2018-05-16T13:45:02.435Z,11.25
2018-05-16T13:47:30.033Z,11.26
2018-05-16T13:49:57.520Z,11.22
2018-05-16T13:52:25.012Z,11.15
2018-05-16T13:54:52.537Z,11.23
2018-05-16T13:57:20.029Z,11.27
2018-05-16T13:59:47.518Z,11.26
2018-05-16T14:02:15.062Z,11.31
2018-05-16T14:04:42.552Z,11.37
2018-05-16T14:07:10.047Z,11.39
2018-05-16T14:09:37.557Z,11.39
2018-05-16T14:12:05.055Z,11.45
2018-05-16T14:14:32.558Z,11.50
2018-05-16T14:17:00.077Z,11.52
2018-05-16T14:19:27.578Z,11.54
2018-05-16T14:21:55.065Z,11.54
2018-05-16T14:24:22.614Z,11.58
2018-05-16T14:26:50.105Z,11.65
2018-05-16T14:29:17.597Z,11.73
2018-05-16T14:31:45.111Z,11.79
2018-05-16T14:34:12.605Z,11.86
2018-05-16T14:36:40.106Z,11.97
2018-05-16T14:39:07.616Z,12.08
2018-05-16T14:41:36.046Z,12.18
2018-05-16T14:44:03.541Z,12.34
2018-05-16T14:46:31.053Z,12.48
2018-05-16T14:48:58.551Z,12.53
2018-05-16T14:51:26.054Z,12.70
2018-05-16T14:53:54.514Z,12.83
2018-05-16T14:56:22.030Z,12.95
2018-05-16T14:58:49.525Z,13.10
2018-05-16T15:01:17.044Z,13.26
2018-05-16T15:03:44.541Z,13.49
2018-05-16T15:06:12.044Z,13.67
2018-05-16T15:08:39.572Z,13.89
2018-05-16T15:11:07.091Z,13.99
2018-05-16T15:13:34.586Z,14.11
2018-05-16T15:16:02.210Z,14.13
2018-05-16T15:18:29.714Z,14.23
2018-05-16T15:20:57.219Z,14.32
2018-05-16T15:23:24.881Z,14.30
2018-05-16T15:25:52.416Z,14.37
2018-05-16T15:28:19.910Z,14.36
2018-05-16T15:30:47.424Z,14.22
2018-05-16T15:33:14.909Z,14.17
2018-05-16T15:35:42.397Z,14.20
2018-05-16T15:38:09.921Z,14.22
2018-05-16T15:40:37.419Z,14.54
2018-05-16T15:43:04.927Z,14.87
2018-05-16T15:45:32.462Z,15.09
2018-05-16T15:47:59.968Z,15.02
2018-05-16T15:50:27.489Z,15.14
2018-05-16T15:52:55.013Z,15.07
2018-05-16T15:55:22.510Z,14.93
2018-05-16T15:57:50.005Z,14.50
2018-05-16T16:00:17.546Z,14.36
2018-05-16T16:02:45.038Z,14.09
2018-05-16T16:05:12.535Z,14.00
2018-05-16T16:07:40.058Z,13.79
2018-05-16T16:10:07.557Z,13.80
2018-05-16T16:12:35.058Z,13.78
2018-05-16T16:15:02.604Z,13.72
2018-05-16T16:17:30.113Z,13.74
2018-05-16T16:19:57.626Z,13.85
2018-05-16T16:22:25.154Z,14.11
2018-05-16T16:24:52.652Z,14.19
2018-05-16T16:27:20.155Z,14.28
2018-05-16T16:29:47.679Z,14.26
2018-05-16T16:32:15.180Z,14.29
2018-05-16T16:34:42.686Z,14.24
2018-05-16T16:37:10.204Z,14.33
2018-05-16T16:39:37.697Z,14.34
2018-05-16T16:42:05.193Z,14.14
2018-05-16T16:44:32.714Z,14.15
2018-05-16T16:47:00.206Z,14.06
2018-05-16T16:49:27.702Z,14.09
2018-05-16T16:51:55.222Z,14.11
2018-05-16T16:54:22.751Z,14.00
2018-05-16T17:02:51.580Z,13.73
2018-05-16T17:08:00.548Z,13.78
2018-05-16T17:10:28.110Z,13.79
2018-05-16T17:12:55.649Z,13.78
2018-05-16T17:15:23.253Z,13.78
2018-05-16T17:17:57.109Z,13.76
2018-05-16T17:20:29.481Z,13.86
2018-05-16T17:29:27.756Z,13.83
2018-05-16T17:31:59.843Z,13.85
2018-05-16T17:34:37.400Z,13.86
2018-05-16T17:37:05.118Z,13.87
2018-05-16T17:39:32.679Z,13.88
2018-05-16T17:42:02.481Z,13.79
2018-05-16T17:44:30.018Z,13.70
2018-05-16T17:47:04.389Z,13.63
2018-05-16T17:52:26.342Z,13.53
2018-05-16T17:54:54.473Z,13.48
2018-05-16T17:57:21.986Z,13.48
2018-05-16T17:59:49.502Z,13.46
2018-05-16T18:02:17.261Z,13.46
2018-05-16T18:04:45.146Z,13.44
2018-05-16T18:07:12.961Z,13.43
2018-05-16T18:09:40.789Z,13.34
2018-05-16T18:12:08.909Z,13.30
2018-05-16T18:17:38.689Z,13.10
2018-05-16T18:20:06.207Z,13.04
2018-05-16T18:22:33.702Z,13.01
2018-05-16T18:25:01.194Z,13.04
2018-05-16T18:27:28.731Z,13.07
2018-05-16T18:29:56.220Z,13.09
2018-05-16T18:32:23.714Z,13.07
2018-05-16T18:34:51.229Z,13.05
2018-05-16T18:37:18.725Z,13.02
2018-05-16T18:39:46.226Z,12.97
2018-05-16T18:42:13.745Z,12.94
2018-05-16T18:44:41.265Z,12.98
2018-05-16T18:47:08.764Z,13.02
2018-05-16T18:49:36.277Z,13.04
2018-05-16T18:52:03.769Z,13.08
2018-05-16T18:54:31.270Z,13.09
2018-05-16T18:56:58.806Z,13.12
2018-05-16T18:59:26.306Z,13.14
2018-05-16T19:01:53.829Z,13.14
2018-05-16T19:04:21.363Z,13.15
2018-05-16T19:06:48.848Z,13.14
2018-05-16T19:09:16.344Z,13.14
2018-05-16T19:11:43.861Z,13.13
2018-05-16T19:14:11.358Z,13.09
2018-05-16T19:16:38.875Z,13.07
2018-05-16T19:19:06.397Z,13.05
2018-05-16T19:21:33.899Z,13.04
2018-05-16T19:24:01.401Z,12.99
2018-05-16T19:26:28.922Z,12.95
2018-05-16T19:28:56.418Z,12.93
2018-05-16T19:31:23.977Z,12.89
2018-05-16T19:33:51.506Z,12.87
2018-05-16T19:36:19.002Z,12.84
2018-05-16T19:38:46.507Z,12.78
2018-05-16T19:41:14.017Z,12.76
2018-05-16T19:43:41.502Z,12.72
2018-05-16T19:46:09.088Z,12.70
2018-05-16T19:48:36.538Z,12.67
2018-05-16T19:51:04.038Z,12.62
2018-05-16T19:53:31.597Z,12.58
2018-05-16T19:55:59.257Z,12.56
2018-05-16T19:58:26.864Z,12.55
2018-05-16T20:00:56.244Z,12.53
2018-05-16T20:03:23.884Z,12.50
2018-05-16T20:05:51.357Z,12.45
2018-05-16T20:08:18.871Z,12.40
2018-05-16T20:10:47.383Z,12.35
2018-05-16T20:13:14.909Z,12.33
2018-05-16T20:15:42.414Z,12.32
2018-05-16T20:18:10.437Z,12.31
2018-05-16T20:20:39.184Z,12.32
2018-05-16T20:23:06.702Z,12.32
2018-05-16T20:25:34.376Z,12.34
2018-05-16T20:28:01.917Z,12.33
2018-05-16T20:30:29.492Z,12.31
2018-05-16T20:32:57.036Z,12.30
2018-05-16T20:35:25.031Z,12.27
2018-05-16T20:37:52.565Z,12.25
2018-05-16T20:40:20.122Z,12.26
2018-05-16T20:42:47.638Z,12.26
2018-05-16T20:45:15.244Z,12.25
2018-05-16T20:47:42.746Z,12.25
2018-05-16T20:50:10.314Z,12.25
2018-05-16T20:52:37.862Z,12.26
2018-05-16T20:55:05.411Z,12.28
2018-05-16T20:57:33.001Z,12.30
2018-05-16T21:00:00.734Z,12.21
2018-05-16T21:02:28.313Z,12.33
2018-05-16T21:04:55.837Z,12.32
2018-05-16T21:07:23.650Z,12.32
2018-05-16T21:09:52.189Z,12.33
2018-05-16T21:12:20.480Z,12.31
2018-05-16T21:14:48.028Z,12.30
2018-05-16T21:17:15.587Z,12.29
2018-05-16T21:19:43.101Z,12.26
2018-05-16T21:22:10.628Z,12.24
2018-05-16T21:24:38.207Z,12.22
2018-05-16T21:27:05.731Z,12.19
2018-05-16T21:29:33.253Z,12.17
2018-05-16T21:32:00.853Z,12.09
2018-05-16T21:34:28.394Z,12.09
2018-05-16T21:36:55.913Z,12.09
2018-05-16T21:39:23.463Z,12.09
2018-05-16T21:41:50.991Z,12.13
2018-05-16T21:44:18.527Z,12.15
2018-05-16T21:46:46.178Z,12.18
2018-05-16T21:49:13.700Z,12.19
2018-05-16T21:51:42.027Z,12.22
2018-05-16T21:54:09.668Z,12.25
2018-05-16T21:56:38.161Z,12.25
2018-05-16T21:59:05.691Z,12.26
2018-05-16T22:01:33.230Z,12.27
2018-05-16T22:04:00.774Z,12.25
2018-05-16T22:06:28.290Z,12.27
2018-05-16T22:08:55.842Z,12.28
2018-05-16T22:11:23.341Z,12.31
2018-05-16T22:13:50.871Z,12.31
2018-05-16T22:16:18.421Z,12.34
2018-05-16T22:18:45.947Z,12.36
2018-05-16T22:21:13.506Z,12.35
2018-05-16T22:23:41.042Z,12.34
2018-05-16T22:26:08.601Z,12.32
2018-05-16T22:28:36.160Z,12.29
2018-05-16T22:31:09.303Z,12.30
2018-05-16T22:33:42.256Z,12.31
2018-05-16T22:36:15.505Z,12.27
2018-05-16T22:38:48.770Z,12.24
2018-05-16T22:41:21.803Z,12.17
2018-05-16T22:46:51.232Z,12.13
2018-05-16T22:49:18.762Z,12.17
2018-05-16T22:51:46.270Z,12.15
2018-05-16T22:54:13.818Z,12.15
2018-05-16T22:56:41.342Z,12.15
2018-05-16T22:59:08.864Z,12.12
2018-05-16T23:01:36.421Z,12.07
2018-05-16T23:04:03.932Z,12.06
2018-05-16T23:06:31.453Z,12.04
2018-05-16T23:08:58.986Z,12.03
2018-05-16T23:11:26.497Z,12.02
2018-05-16T23:13:53.990Z,12.03
2018-05-16T23:16:21.539Z,12.03
2018-05-16T23:18:49.041Z,12.04
2018-05-16T23:21:16.569Z,12.05
2018-05-16T23:23:44.107Z,12.05
2018-05-16T23:26:11.610Z,12.09
2018-05-16T23:28:39.097Z,12.06
2018-05-16T23:31:06.629Z,12.03
2018-05-16T23:33:34.149Z,12.03
2018-05-16T23:36:01.645Z,11.92
2018-05-16T23:38:29.190Z,12.08
2018-05-16T23:40:56.787Z,12.07
2018-05-16T23:43:24.301Z,12.11
2018-05-16T23:45:51.826Z,12.14
2018-05-16T23:48:19.999Z,12.16
2018-05-16T23:50:47.570Z,12.16
2018-05-16T23:53:15.053Z,12.17
2018-05-16T23:55:42.586Z,12.16
2018-05-16T23:58:10.093Z,12.17
